Time;durP1;ratioP1;P1;durP2;ratioP2;P2;SDS_P1;SDS_P2;PMS_P1;PMS_P2;Temp;Humidity;BMP_temperature;BMP_pressure;BME280_temperature;BME280_humidity;BME280_pressure;Samples;Min_cycle;Max_cycle;Signal;HPM_P1;HPM_P2
2024/03/13 00:02:14;;;;;;;19.38;10.18;;;11.40;99.90;;;;;;4960320;28;20114;-70
2024/03/13 00:04:43;;;;;;;17.65;9.52;;;11.40;99.90;;;;;;4959871;28;20111;-69
2024/03/13 00:07:13;;;;;;;15.75;9.13;;;11.30;99.90;;;;;;4964459;28;20042;-69
2024/03/13 00:09:46;;;;;;;18.55;9.98;;;11.30;99.90;;;;;;4960660;28;20763;-70
2024/03/13 00:12:14;;;;;;;22.38;11.35;;;11.30;99.90;;;;;;4963529;28;20561;-70
2024/03/13 00:14:40;;;;;;;17.50;9.65;;;11.30;99.90;;;;;;4964261;28;20153;-69
2024/03/13 00:17:06;;;;;;;20.42;10.07;;;11.30;99.90;;;;;;4960289;28;20150;-69
2024/03/13 00:19:37;;;;;;;25.77;11.43;;;11.30;99.90;;;;;;4963871;28;20035;-70
2024/03/13 00:22:04;;;;;;;18.17;9.93;;;11.30;99.90;;;;;;4979993;28;20039;-69
2024/03/13 00:24:30;;;;;;;17.60;9.93;;;11.20;99.90;;;;;;4959739;28;20047;-69
2024/03/13 00:26:57;;;;;;;18.58;9.98;;;11.20;99.90;;;;;;4961008;28;20031;-70
2024/03/13 00:29:27;;;;;;;16.60;9.95;;;11.20;99.90;;;;;;4964625;28;20506;-70
2024/03/13 00:31:53;;;;;;;20.73;10.85;;;11.20;99.90;;;;;;4960035;28;20178;-70
2024/03/13 00:34:20;;;;;;;20.08;10.88;;;11.20;99.90;;;;;;4965405;28;20802;-70
2024/03/13 00:36:47;;;;;;;22.13;10.52;;;11.20;99.90;;;;;;4965392;28;20422;-70
2024/03/13 00:39:13;;;;;;;19.10;10.15;;;11.20;99.90;;;;;;4962914;28;20034;-69
2024/03/13 00:41:39;;;;;;;20.95;10.25;;;11.20;99.90;;;;;;4962593;28;20040;-70
2024/03/13 00:44:05;;;;;;;21.70;10.20;;;11.20;99.90;;;;;;4975662;28;20486;-70
2024/03/13 00:46:31;;;;;;;19.15;10.07;;;11.10;99.90;;;;;;4960647;28;20046;-70
2024/03/13 00:48:57;;;;;;;19.67;9.73;;;11.10;99.90;;;;;;4963140;28;20037;-70
2024/03/13 00:51:23;;;;;;;22.25;10.35;;;11.10;99.90;;;;;;4963413;28;21164;-70
2024/03/13 00:53:49;;;;;;;17.75;10.30;;;11.10;99.90;;;;;;4960442;28;20621;-70
2024/03/13 00:56:15;;;;;;;18.50;9.85;;;11.10;99.90;;;;;;4961323;28;20118;-70
2024/03/13 00:58:42;;;;;;;20.83;10.68;;;11.00;99.90;;;;;;4963466;28;20453;-70
2024/03/13 01:01:12;;;;;;;22.70;12.02;;;11.00;99.90;;;;;;4975917;28;20074;-70
2024/03/13 01:03:38;;;;;;;19.88;10.35;;;11.00;99.90;;;;;;4963200;28;20626;-70
2024/03/13 01:06:06;;;;;;;19.60;10.50;;;11.00;99.90;;;;;;4965278;28;20035;-69
2024/03/13 01:08:34;;;;;;;23.67;11.20;;;11.00;99.90;;;;;;4959648;28;20662;-70
2024/03/13 01:11:00;;;;;;;21.48;11.07;;;11.00;99.90;;;;;;4961563;28;20027;-70
2024/03/13 01:13:27;;;;;;;22.67;10.38;;;11.00;99.90;;;;;;4963376;28;20045;-70
2024/03/13 01:15:53;;;;;;;24.42;12.40;;;11.00;99.90;;;;;;4958717;28;20097;-70
2024/03/13 01:18:19;;;;;;;21.25;11.45;;;10.90;99.90;;;;;;4963087;28;20062;-70
2024/03/13 01:20:47;;;;;;;20.17;9.93;;;11.00;99.90;;;;;;4963504;28;20049;-70
2024/03/13 01:23:13;;;;;;;20.13;10.88;;;10.90;99.90;;;;;;4960010;28;20089;-69
2024/03/13 01:25:44;;;;;;;19.98;10.88;;;10.90;99.90;;;;;;4965891;28;20560;-70
2024/03/13 01:28:10;;;;;;;23.13;11.23;;;10.90;99.90;;;;;;4965877;28;20188;-70
2024/03/13 01:30:36;;;;;;;24.23;12.10;;;10.90;99.90;;;;;;4960394;28;20506;-70
2024/03/13 01:33:02;;;;;;;22.60;10.93;;;10.80;99.90;;;;;;4963573;28;20493;-70
2024/03/13 01:35:28;;;;;;;19.65;10.10;;;10.80;99.90;;;;;;4963211;28;20039;-70
2024/03/13 01:37:58;;;;;;;16.48;9.73;;;10.80;99.90;;;;;;4959333;28;20062;-69
2024/03/13 01:54:50;;;;;;;19.15;10.18;;;10.80;99.90;;;;;;4961230;28;20038;-70
2024/03/13 01:55:09;;;;;;;22.75;10.95;;;10.70;99.90;;;;;;4960773;28;20384;-70
2024/03/13 01:57:56;;;;;;;21.38;11.02;;;10.70;99.90;;;;;;4963053;28;20034;-69
2024/03/13 02:03:11;;;;;;;23.63;11.07;;;10.60;99.90;;;;;;4977867;28;20379;-69
2024/03/13 02:05:42;;;;;;;20.77;10.45;;;10.50;99.90;;;;;;4962774;28;20031;-70
2024/03/13 02:08:09;;;;;;;24.83;12.25;;;10.50;99.90;;;;;;4958889;28;20031;-70
2024/03/13 02:10:36;;;;;;;24.15;12.40;;;10.50;99.90;;;;;;4963147;28;20100;-69
2024/03/13 02:13:06;;;;;;;18.25;9.73;;;10.50;99.90;;;;;;4962661;28;20027;-70
2024/03/13 02:15:33;;;;;;;19.88;10.13;;;10.40;99.90;;;;;;4958344;28;20046;-70
2024/03/13 02:18:13;;;;;;;24.15;11.00;;;10.40;99.90;;;;;;4961331;28;20118;-70
2024/03/13 02:20:40;;;;;;;21.83;11.95;;;10.40;99.90;;;;;;4962450;28;20050;-70
2024/03/13 02:23:06;;;;;;;27.67;12.68;;;10.40;99.90;;;;;;4958533;28;20462;-70
2024/03/13 02:25:32;;;;;;;26.90;12.80;;;10.40;99.90;;;;;;4961168;28;20038;-70
2024/03/13 02:27:59;;;;;;;21.50;10.75;;;10.30;99.90;;;;;;4960983;28;20102;-69
2024/03/13 02:30:26;;;;;;;25.15;12.82;;;10.20;99.90;;;;;;4958602;28;20039;-69
2024/03/13 02:32:52;;;;;;;22.50;11.82;;;10.20;99.90;;;;;;4962347;28;20039;-70
2024/03/13 02:35:18;;;;;;;23.60;11.63;;;10.10;99.90;;;;;;4965283;28;20387;-70
2024/03/13 02:37:44;;;;;;;27.70;12.45;;;10.10;99.90;;;;;;4957042;28;20073;-69
2024/03/13 02:40:16;;;;;;;21.17;11.73;;;10.00;99.90;;;;;;4959670;28;20793;-69
2024/03/13 02:42:46;;;;;;;23.45;11.88;;;10.00;99.90;;;;;;4969792;28;20732;-70
2024/03/13 02:45:13;;;;;;;25.02;12.95;;;9.90;99.90;;;;;;4961237;28;20033;-70
2024/03/13 02:47:41;;;;;;;23.65;12.18;;;9.90;99.90;;;;;;4962080;28;20105;-69
2024/03/13 02:50:11;;;;;;;25.52;12.55;;;9.80;99.90;;;;;;4964566;28;20083;-69
2024/03/13 02:52:39;;;;;;;30.75;14.07;;;9.80;99.90;;;;;;4960802;28;20042;-69
2024/03/13 02:55:06;;;;;;;28.95;13.60;;;9.70;99.90;;;;;;4963955;28;20035;-69
2024/03/13 02:57:32;;;;;;;25.35;12.25;;;9.70;99.90;;;;;;4961302;28;20031;-69
2024/03/13 02:59:58;;;;;;;26.45;13.07;;;9.60;99.90;;;;;;4960361;28;20026;-69
2024/03/13 03:02:24;;;;;;;27.35;13.85;;;9.60;99.90;;;;;;4960316;28;20104;-69
2024/03/13 03:04:50;;;;;;;25.05;13.15;;;9.40;99.90;;;;;;4962528;28;20125;-69
2024/03/13 03:07:16;;;;;;;26.08;13.25;;;9.40;99.90;;;;;;4957415;28;20034;-70
2024/03/13 03:09:42;;;;;;;22.73;11.43;;;9.30;99.90;;;;;;4960536;28;20034;-70
2024/03/13 03:12:12;;;;;;;28.02;13.20;;;9.20;99.90;;;;;;4962440;28;20572;-70
2024/03/13 03:14:41;;;;;;;28.80;13.25;;;9.10;99.90;;;;;;4957916;28;20556;-71
2024/03/13 03:17:07;;;;;;;25.40;12.27;;;9.10;99.90;;;;;;4960180;28;20082;-70
2024/03/13 03:19:34;;;;;;;30.48;14.35;;;9.00;99.90;;;;;;4962119;28;20104;-71
2024/03/13 03:22:03;;;;;;;25.35;12.50;;;8.90;99.90;;;;;;4956941;28;20031;-71
2024/03/13 03:24:32;;;;;;;30.65;13.63;;;8.80;99.90;;;;;;4960628;28;20027;-70
2024/03/13 03:26:58;;;;;;;26.83;13.05;;;8.80;99.90;;;;;;4961155;28;20038;-70
2024/03/13 03:29:26;;;;;;;28.60;13.52;;;8.70;99.90;;;;;;4959344;28;20030;-70
2024/03/13 03:31:52;;;;;;;27.83;13.98;;;8.70;99.90;;;;;;4959998;28;20039;-70
2024/03/13 03:34:18;;;;;;;24.58;12.25;;;8.60;99.90;;;;;;4963994;28;20038;-70
2024/03/13 03:36:44;;;;;;;29.50;13.57;;;8.60;99.90;;;;;;4956024;28;20112;-70
2024/03/13 03:39:15;;;;;;;31.52;14.40;;;8.50;99.90;;;;;;4958760;28;20035;-70
2024/03/13 03:41:41;;;;;;;30.30;13.55;;;8.60;99.90;;;;;;4961496;28;20027;-70
2024/03/13 03:44:11;;;;;;;29.08;13.55;;;8.50;99.90;;;;;;4958136;28;20106;-70
2024/03/13 03:46:38;;;;;;;29.33;13.50;;;8.40;99.90;;;;;;4961181;28;20051;-69
2024/03/13 03:49:05;;;;;;;29.80;13.45;;;8.40;99.90;;;;;;4962503;28;20034;-69
2024/03/13 03:51:32;;;;;;;29.00;13.23;;;8.40;99.90;;;;;;4957114;28;20023;-71
2024/03/13 03:53:59;;;;;;;29.08;13.57;;;8.40;99.90;;;;;;4956974;28;20084;-70
2024/03/13 03:56:27;;;;;;;29.08;12.68;;;8.40;99.90;;;;;;4960786;28;20498;-70
2024/03/13 03:58:55;;;;;;;30.13;14.57;;;8.30;99.90;;;;;;4957616;28;20031;-70
2024/03/13 04:01:22;;;;;;;31.00;13.95;;;8.20;99.90;;;;;;4970002;28;20033;-70
2024/03/13 04:03:48;;;;;;;30.60;13.38;;;8.20;99.90;;;;;;4963381;28;20058;-70
2024/03/13 04:06:17;;;;;;;31.40;14.20;;;8.20;99.90;;;;;;4955935;28;20048;-70
2024/03/13 04:08:46;;;;;;;30.35;14.07;;;8.10;99.90;;;;;;4955613;28;20097;-70
2024/03/13 04:11:12;;;;;;;32.08;13.77;;;8.10;99.90;;;;;;4961918;28;20026;-70
2024/03/13 04:13:42;;;;;;;28.60;14.48;;;8.10;99.90;;;;;;4958066;28;20490;-70
2024/03/13 04:16:10;;;;;;;31.77;13.80;;;8.10;99.90;;;;;;4959724;28;20050;-70
2024/03/13 04:18:37;;;;;;;31.83;14.20;;;8.00;99.90;;;;;;4961510;28;20034;-70
2024/03/13 04:21:03;;;;;;;29.42;14.10;;;8.00;99.90;;;;;;4957842;28;20031;-70
2024/03/13 04:23:30;;;;;;;31.58;14.27;;;8.00;99.90;;;;;;4959449;28;20031;-70
2024/03/13 04:25:56;;;;;;;28.13;13.40;;;7.90;99.90;;;;;;4961195;28;20043;-71
2024/03/13 04:28:22;;;;;;;30.25;14.40;;;7.90;99.90;;;;;;4958450;28;20031;-70
2024/03/13 04:30:49;;;;;;;32.40;14.52;;;7.80;99.90;;;;;;4958687;28;20477;-70
2024/03/13 04:33:17;;;;;;;30.60;13.25;;;7.80;99.90;;;;;;4963480;28;20834;-70
2024/03/13 04:35:44;;;;;;;34.83;14.93;;;7.80;99.90;;;;;;4959787;28;20053;-70
2024/03/13 04:38:13;;;;;;;27.95;12.77;;;7.80;99.90;;;;;;4958470;28;20759;-70
2024/03/13 04:40:39;;;;;;;36.67;14.13;;;7.80;99.90;;;;;;4960787;28;20030;-70
2024/03/13 04:43:08;;;;;;;34.97;14.68;;;7.70;99.90;;;;;;4956532;28;20125;-70
2024/03/13 04:45:36;;;;;;;32.33;14.23;;;7.70;99.90;;;;;;4960195;28;20121;-70
2024/03/13 04:48:03;;;;;;;33.90;15.52;;;7.70;99.90;;;;;;4959956;28;20035;-70
2024/03/13 04:50:30;;;;;;;29.42;13.63;;;7.70;99.90;;;;;;4958696;28;20028;-70
2024/03/13 04:52:56;;;;;;;27.58;12.85;;;7.60;99.90;;;;;;4959033;28;20039;-70
2024/03/13 04:55:22;;;;;;;28.80;13.27;;;7.60;99.90;;;;;;4963689;28;20026;-70
2024/03/13 04:57:47;;;;;;;28.75;13.35;;;7.50;99.90;;;;;;4959589;28;20566;-70
2024/03/13 05:00:14;;;;;;;26.27;12.13;;;7.50;99.90;;;;;;4963553;28;20478;-70
2024/03/13 05:02:40;;;;;;;25.75;12.07;;;7.50;99.90;;;;;;4965016;28;20051;-70
2024/03/13 05:05:12;;;;;;;30.05;12.45;;;7.30;99.90;;;;;;4958336;28;20043;-70
2024/03/13 05:07:39;;;;;;;26.52;12.48;;;7.20;99.90;;;;;;4961971;28;20037;-70
2024/03/13 05:10:06;;;;;;;30.15;12.15;;;7.20;99.90;;;;;;4964177;28;20108;-70
2024/03/13 05:12:36;;;;;;;28.30;13.88;;;7.10;99.90;;;;;;4959754;28;20070;-69
2024/03/13 05:15:06;;;;;;;27.92;12.80;;;7.10;99.90;;;;;;4962739;28;21585;-70
2024/03/13 05:17:36;;;;;;;30.50;14.07;;;7.00;99.90;;;;;;4963515;28;20142;-70
2024/03/13 05:20:06;;;;;;;31.13;14.90;;;7.00;99.90;;;;;;4960418;28;20130;-70
2024/03/13 05:22:33;;;;;;;29.33;14.05;;;7.00;99.90;;;;;;4962789;28;20062;-70
2024/03/13 05:24:59;;;;;;;31.45;13.35;;;7.00;99.90;;;;;;4961131;28;20027;-69
2024/03/13 05:27:25;;;;;;;30.58;13.15;;;7.00;99.90;;;;;;4959834;28;20081;-69
2024/03/13 05:29:52;;;;;;;27.50;13.20;;;7.00;99.90;;;;;;4963660;28;20031;-70
2024/03/13 05:32:18;;;;;;;27.63;11.73;;;6.90;99.90;;;;;;4965319;28;21029;-70
2024/03/13 05:34:44;;;;;;;25.25;12.02;;;6.90;99.90;;;;;;4958810;28;20108;-70
2024/03/13 05:37:09;;;;;;;29.63;13.02;;;6.90;99.90;;;;;;4961319;28;20039;-70
2024/03/13 05:39:35;;;;;;;33.65;14.60;;;6.90;99.90;;;;;;4964055;28;20045;-70
2024/03/13 05:42:01;;;;;;;24.75;11.73;;;6.90;99.90;;;;;;4960802;28;20045;-70
2024/03/13 05:44:27;;;;;;;24.63;11.77;;;6.80;99.90;;;;;;4962979;28;20034;-70
2024/03/13 05:46:54;;;;;;;31.13;14.32;;;6.80;99.90;;;;;;4964496;28;20634;-70
2024/03/13 05:49:20;;;;;;;28.38;13.13;;;6.80;99.90;;;;;;4964827;28;20712;-70
2024/03/13 05:51:47;;;;;;;29.77;13.25;;;6.80;99.90;;;;;;4961847;28;20035;-70
2024/03/13 05:54:13;;;;;;;35.50;14.88;;;6.90;99.90;;;;;;4962857;28;20030;-70
2024/03/13 05:56:39;;;;;;;33.28;14.40;;;6.90;99.90;;;;;;4959451;28;20041;-70
2024/03/13 05:59:05;;;;;;;25.38;13.05;;;6.90;99.90;;;;;;4961888;28;20031;-70
2024/03/13 06:01:31;;;;;;;35.08;13.45;;;6.90;99.90;;;;;;4963472;28;20650;-70
2024/03/13 06:03:58;;;;;;;36.92;13.80;;;6.90;99.90;;;;;;4958754;28;20061;-70
2024/03/13 06:06:25;;;;;;;29.10;13.15;;;6.90;99.90;;;;;;4959908;28;20070;-70
2024/03/13 06:08:51;;;;;;;28.73;13.73;;;6.90;99.90;;;;;;4963896;28;20031;-70
2024/03/13 06:11:19;;;;;;;31.65;13.93;;;6.90;99.90;;;;;;4959651;28;20042;-70
2024/03/13 06:13:45;;;;;;;27.80;13.45;;;6.90;99.90;;;;;;4961815;28;20415;-70
2024/03/13 06:16:11;;;;;;;32.97;13.13;;;7.00;99.90;;;;;;4962572;28;20046;-70
2024/03/13 06:18:37;;;;;;;34.35;15.43;;;7.00;99.90;;;;;;4958598;28;20069;-69
2024/03/13 06:21:05;;;;;;;28.17;13.25;;;7.00;99.90;;;;;;4960199;28;20110;-69
2024/03/13 06:23:31;;;;;;;33.88;15.15;;;7.10;99.90;;;;;;4962048;28;20023;-69
2024/03/13 06:25:59;;;;;;;27.45;13.90;;;7.10;99.90;;;;;;4957459;28;20128;-69
2024/03/13 06:31:10;;;;;;;30.05;14.43;;;7.20;99.90;;;;;;4963273;28;21300;-69
2024/03/13 06:33:36;;;;;;;29.20;14.20;;;7.30;99.90;;;;;;4969713;28;20039;-69
2024/03/13 06:36:02;;;;;;;34.97;14.48;;;7.40;99.90;;;;;;4959096;28;20765;-69
2024/03/13 06:38:28;;;;;;;33.22;14.35;;;7.50;99.90;;;;;;4962398;28;20051;-69
2024/03/13 06:40:54;;;;;;;32.45;13.82;;;7.60;99.90;;;;;;4957394;28;20026;-69
2024/03/13 06:43:20;;;;;;;32.78;14.27;;;7.70;99.90;;;;;;4961353;28;20381;-69
2024/03/13 06:45:47;;;;;;;32.90;13.82;;;7.80;99.90;;;;;;4963161;28;20074;-69
2024/03/13 06:48:13;;;;;;;31.95;13.18;;;7.80;99.90;;;;;;4960118;28;20042;-69
2024/03/13 06:50:39;;;;;;;27.25;13.80;;;7.90;99.90;;;;;;4959825;28;20139;-69
2024/03/13 06:53:05;;;;;;;28.42;12.85;;;8.00;99.90;;;;;;4961520;28;20030;-69
2024/03/13 06:55:31;;;;;;;36.30;14.63;;;8.00;99.90;;;;;;4958142;28;20037;-69
2024/03/13 06:57:57;;;;;;;30.80;14.93;;;8.10;99.90;;;;;;4960865;28;20049;-69
2024/03/13 07:00:27;;;;;;;37.70;15.82;;;8.20;99.90;;;;;;4961524;28;20037;-69
2024/03/13 07:02:56;;;;;;;32.67;15.25;;;8.30;99.90;;;;;;4957048;28;20081;-70
2024/03/13 07:05:23;;;;;;;36.70;15.65;;;8.40;99.90;;;;;;4958801;28;20027;-69
2024/03/13 07:07:49;;;;;;;36.17;15.48;;;8.40;99.90;;;;;;4961463;28;20037;-69
2024/03/13 07:10:15;;;;;;;33.35;14.82;;;8.50;99.90;;;;;;4957936;28;20035;-69
2024/03/13 07:12:42;;;;;;;35.75;15.95;;;8.60;99.90;;;;;;4960886;28;20058;-69
2024/03/13 07:15:10;;;;;;;32.30;15.75;;;8.70;99.90;;;;;;4962204;28;20047;-69
2024/03/13 07:17:39;;;;;;;37.45;16.40;;;8.80;99.90;;;;;;4957903;28;20430;-69
2024/03/13 07:20:09;;;;;;;32.72;15.77;;;8.90;99.90;;;;;;4959183;28;20478;-69
2024/03/13 07:22:35;;;;;;;37.38;14.82;;;9.00;99.90;;;;;;4961495;28;20038;-69
2024/03/13 07:25:02;;;;;;;33.75;16.33;;;9.10;99.90;;;;;;4957441;28;20037;-70
2024/03/13 07:27:28;;;;;;;39.75;16.83;;;9.20;99.90;;;;;;4961421;28;20030;-70
2024/03/13 07:29:53;;;;;;;35.83;17.10;;;9.40;99.90;;;;;;4961385;28;20250;-70
2024/03/13 07:32:21;;;;;;;40.65;17.52;;;10.00;99.90;;;;;;4959046;28;20138;-70
2024/03/13 07:34:46;;;;;;;44.65;18.73;;;10.80;99.90;;;;;;4959234;28;20039;-70
2024/03/13 07:37:12;;;;;;;36.42;17.55;;;11.60;99.90;;;;;;4960596;28;20031;-71
2024/03/13 07:39:39;;;;;;;38.30;17.63;;;12.30;99.90;;;;;;4958270;28;20558;-71
2024/03/13 07:42:06;;;;;;;41.00;18.85;;;13.10;99.90;;;;;;4960906;28;20443;-71
2024/03/13 07:44:32;;;;;;;38.88;17.25;;;13.80;99.90;;;;;;4962241;28;20520;-70
2024/03/13 07:46:58;;;;;;;33.75;16.42;;;14.40;99.90;;;;;;4960554;28;20122;-70
2024/03/13 07:49:26;;;;;;;32.20;16.05;;;14.70;99.90;;;;;;4958320;28;20115;-70
2024/03/13 07:51:54;;;;;;;34.30;17.17;;;15.00;99.90;;;;;;4976030;28;20046;-70
2024/03/13 07:54:22;;;;;;;39.15;17.30;;;15.10;98.70;;;;;;4959927;28;20043;-70
2024/03/13 07:56:48;;;;;;;37.33;17.80;;;15.20;98.60;;;;;;4959812;28;20363;-71
2024/03/13 07:59:14;;;;;;;36.30;17.23;;;15.10;98.10;;;;;;4961113;28;20034;-71
2024/03/13 08:01:45;;;;;;;36.13;17.30;;;15.00;98.10;;;;;;4958892;28;20057;-71
2024/03/13 08:04:11;;;;;;;35.65;17.80;;;15.00;98.90;;;;;;4958039;28;20633;-70
2024/03/13 08:06:40;;;;;;;37.88;16.38;;;15.10;98.10;;;;;;4958513;28;20068;-71
2024/03/13 08:09:05;;;;;;;35.13;16.48;;;15.00;98.00;;;;;;4959944;28;20494;-71
2024/03/13 08:11:33;;;;;;;31.30;15.30;;;15.10;98.00;;;;;;4959197;28;20076;-71
2024/03/13 08:14:01;;;;;;;34.13;17.67;;;15.00;98.00;;;;;;4959675;28;20039;-71
2024/03/13 08:16:27;;;;;;;32.75;16.80;;;14.80;97.80;;;;;;4956185;28;20051;-71
2024/03/13 08:18:53;;;;;;;33.30;17.67;;;14.80;98.50;;;;;;4959153;28;20118;-71
2024/03/13 08:21:19;;;;;;;35.17;16.92;;;14.80;98.50;;;;;;4960990;28;20039;-71
2024/03/13 08:23:45;;;;;;;32.58;16.60;;;14.90;98.10;;;;;;4957451;28;20027;-71
2024/03/13 08:26:11;;;;;;;29.98;14.90;;;14.90;97.80;;;;;;4959778;28;20517;-71
2024/03/13 08:28:37;;;;;;;30.77;14.80;;;14.80;96.80;;;;;;4964666;28;20031;-71
2024/03/13 08:31:06;;;;;;;27.60;14.32;;;14.70;96.10;;;;;;4961317;28;20039;-71
2024/03/13 08:33:35;;;;;;;27.13;13.90;;;14.50;96.60;;;;;;4962916;28;20031;-72
2024/03/13 08:36:04;;;;;;;33.53;15.90;;;14.40;97.00;;;;;;4963330;28;20746;-71
2024/03/13 08:38:32;;;;;;;29.85;15.18;;;14.40;96.90;;;;;;4964917;28;20034;-71
2024/03/13 08:41:00;;;;;;;34.38;16.17;;;14.50;96.80;;;;;;4967666;28;20141;-71
2024/03/13 08:43:26;;;;;;;29.85;14.80;;;14.60;97.20;;;;;;4963314;28;20045;-71
2024/03/13 08:45:52;;;;;;;30.98;14.73;;;14.60;96.70;;;;;;4961805;28;20074;-71
2024/03/13 08:48:19;;;;;;;31.77;15.63;;;14.60;96.60;;;;;;4961922;28;20042;-70
2024/03/13 08:50:44;;;;;;;35.22;16.23;;;14.60;97.00;;;;;;4964714;28;20497;-71
2024/03/13 08:53:14;;;;;;;36.30;16.23;;;14.70;96.90;;;;;;4963322;28;20053;-69
2024/03/13 08:55:43;;;;;;;30.30;14.60;;;14.40;97.20;;;;;;4964013;28;20033;-70
2024/03/13 08:58:08;;;;;;;32.65;15.40;;;14.50;97.00;;;;;;4964408;28;20432;-70
2024/03/13 09:00:34;;;;;;;31.02;14.45;;;14.70;97.40;;;;;;4963572;28;20039;-69
2024/03/13 09:03:01;;;;;;;33.28;15.88;;;14.90;97.10;;;;;;4959966;28;20035;-70
2024/03/13 09:05:29;;;;;;;34.67;16.50;;;15.30;96.40;;;;;;4962838;28;20027;-70
2024/03/13 09:07:55;;;;;;;30.77;15.70;;;15.70;95.80;;;;;;4962172;28;20039;-70
2024/03/13 09:10:22;;;;;;;33.35;17.13;;;16.20;94.40;;;;;;4962656;28;20037;-70
2024/03/13 09:12:50;;;;;;;31.98;15.80;;;16.70;93.70;;;;;;4963535;28;20035;-70
2024/03/13 09:15:16;;;;;;;29.90;15.38;;;17.00;92.50;;;;;;4959640;28;20041;-70
2024/03/13 09:17:42;;;;;;;30.02;14.93;;;17.40;91.90;;;;;;4961368;28;20026;-70
2024/03/13 09:20:08;;;;;;;31.55;14.07;;;17.90;90.80;;;;;;4962638;28;20512;-71
2024/03/13 09:22:34;;;;;;;28.60;14.60;;;17.80;89.40;;;;;;4976107;28;20620;-70
2024/03/13 09:25:00;;;;;;;26.13;14.15;;;18.10;88.80;;;;;;4961663;28;20054;-70
2024/03/13 09:27:25;;;;;;;31.05;14.80;;;18.20;88.60;;;;;;4963090;28;20050;-72
2024/03/13 09:29:55;;;;;;;26.67;14.18;;;17.70;88.50;;;;;;4960350;28;20031;-70
2024/03/13 09:32:21;;;;;;;25.92;13.05;;;17.60;88.10;;;;;;4962497;28;20035;-70
2024/03/13 09:34:48;;;;;;;22.42;12.45;;;17.50;89.70;;;;;;4962474;28;20039;-69
2024/03/13 09:37:16;;;;;;;24.92;12.10;;;17.10;90.10;;;;;;4960880;28;20127;-70
2024/03/13 09:39:41;;;;;;;25.70;13.35;;;17.00;90.70;;;;;;4961454;28;20027;-70
2024/03/13 09:42:17;;;;;;;28.77;13.38;;;17.10;90.40;;;;;;4962159;28;20038;-70
2024/03/13 09:44:44;;;;;;;22.73;12.32;;;17.00;89.90;;;;;;4962587;28;20547;-70
2024/03/13 09:47:12;;;;;;;25.17;12.90;;;17.00;90.50;;;;;;4961255;28;20034;-70
2024/03/13 09:49:43;;;;;;;18.67;10.70;;;16.80;90.60;;;;;;4960920;28;20132;-70
2024/03/13 09:52:15;;;;;;;23.77;11.70;;;16.70;89.90;;;;;;4960006;28;20843;-70
2024/03/13 09:54:43;;;;;;;23.75;11.40;;;16.60;90.40;;;;;;4962573;28;20035;-70
2024/03/13 09:57:12;;;;;;;20.73;11.15;;;16.40;90.60;;;;;;4963338;28;20046;-70
2024/03/13 09:59:41;;;;;;;21.35;11.70;;;16.50;90.80;;;;;;4966159;28;20038;-71
2024/03/13 10:02:21;;;;;;;24.13;11.82;;;16.80;90.90;;;;;;4962058;28;20038;-71
2024/03/13 10:04:48;;;;;;;23.35;12.05;;;17.40;87.20;;;;;;4962391;28;20041;-68
2024/03/13 10:07:19;;;;;;;22.90;11.80;;;17.90;84.80;;;;;;4972766;28;20035;-72
2024/03/13 10:09:47;;;;;;;24.33;12.40;;;18.40;83.40;;;;;;4961194;28;20040;-71
2024/03/13 10:12:15;;;;;;;18.95;10.23;;;18.80;83.40;;;;;;4963453;28;20113;-72
2024/03/13 10:14:43;;;;;;;18.55;10.38;;;19.20;80.70;;;;;;4959509;28;20094;-68
2024/03/13 10:17:11;;;;;;;18.90;10.50;;;19.50;78.50;;;;;;4961659;28;20034;-68
2024/03/13 10:19:46;;;;;;;22.13;11.68;;;19.10;80.30;;;;;;4964477;28;20031;-71
2024/03/13 10:22:13;;;;;;;17.60;9.60;;;18.60;78.00;;;;;;4959431;28;20125;-71
2024/03/13 10:24:42;;;;;;;20.00;10.57;;;18.10;79.50;;;;;;4961798;28;20037;-71
2024/03/13 10:27:13;;;;;;;19.42;10.60;;;17.80;82.30;;;;;;4962763;28;20035;-71
2024/03/13 10:29:43;;;;;;;18.80;10.48;;;18.00;81.10;;;;;;4958331;28;20049;-71
2024/03/13 10:32:12;;;;;;;20.15;10.55;;;18.20;80.40;;;;;;4960834;28;20128;-71
2024/03/13 10:34:38;;;;;;;20.80;11.35;;;18.50;78.40;;;;;;4963669;28;20076;-71
2024/03/13 10:37:12;;;;;;;21.30;11.05;;;18.80;78.20;;;;;;4960265;28;20035;-71
2024/03/13 10:39:41;;;;;;;22.23;11.73;;;19.20;78.10;;;;;;4963942;28;20039;-71
2024/03/13 10:42:10;;;;;;;22.23;11.82;;;19.40;76.50;;;;;;4962915;28;20035;-71
2024/03/13 10:44:35;;;;;;;17.75;11.10;;;20.00;73.50;;;;;;4961771;28;20135;-71
2024/03/13 10:47:01;;;;;;;19.85;11.50;;;21.00;72.80;;;;;;4959295;28;20114;-70
2024/03/13 10:49:30;;;;;;;20.77;12.55;;;21.00;70.50;;;;;;4962630;28;20542;-71
2024/03/13 10:51:57;;;;;;;26.27;12.20;;;20.80;71.50;;;;;;4957081;28;20139;-71
2024/03/13 10:54:24;;;;;;;19.08;11.13;;;20.90;70.30;;;;;;4963290;28;20026;-70
2024/03/13 10:56:51;;;;;;;22.40;12.82;;;21.60;68.20;;;;;;4958975;28;20486;-70
2024/03/13 10:59:18;;;;;;;23.67;12.88;;;21.60;65.90;;;;;;4958338;28;20109;-70
2024/03/13 11:01:49;;;;;;;19.27;10.82;;;21.90;65.40;;;;;;4960643;28;20034;-70
2024/03/13 11:04:15;;;;;;;22.73;12.15;;;22.30;65.60;;;;;;4962687;28;20679;-70
2024/03/13 11:06:41;;;;;;;19.42;11.45;;;22.10;63.60;;;;;;4968209;28;20031;-70
2024/03/13 11:09:21;;;;;;;18.17;11.65;;;21.20;64.10;;;;;;4961063;28;20076;-70
2024/03/13 11:11:52;;;;;;;18.70;10.52;;;21.00;65.00;;;;;;4964645;28;20042;-70
2024/03/13 11:14:20;;;;;;;17.60;10.77;;;20.90;65.50;;;;;;4973517;28;20502;-70
2024/03/13 11:16:56;;;;;;;19.55;11.30;;;20.90;63.50;;;;;;4958003;28;20035;-70
2024/03/13 11:19:28;;;;;;;19.77;11.65;;;19.80;67.40;;;;;;4961976;28;20031;-71
2024/03/13 11:21:59;;;;;;;19.58;11.77;;;19.00;68.60;;;;;;4957110;28;20033;-69
2024/03/13 11:24:26;;;;;;;19.25;11.10;;;18.40;72.00;;;;;;4960082;28;20034;-70
2024/03/13 11:26:52;;;;;;;19.55;10.48;;;17.70;74.70;;;;;;4978425;28;20462;-70
2024/03/13 11:29:33;;;;;;;17.65;10.98;;;17.00;75.90;;;;;;4959383;28;20570;-70
2024/03/13 11:32:00;;;;;;;19.95;11.02;;;16.70;78.80;;;;;;4959661;28;20055;-71
2024/03/13 11:34:27;;;;;;;20.10;10.55;;;16.50;79.50;;;;;;4959865;28;20039;-68
2024/03/13 11:36:52;;;;;;;18.80;10.48;;;16.60;79.30;;;;;;4959975;28;20114;-68
2024/03/13 11:39:21;;;;;;;20.30;11.25;;;16.70;78.40;;;;;;4969769;28;20417;-68
2024/03/13 11:41:47;;;;;;;18.73;10.13;;;16.50;78.40;;;;;;4960297;28;20110;-68
2024/03/13 11:44:21;;;;;;;19.38;10.52;;;16.50;78.10;;;;;;4972708;28;20120;-68
2024/03/13 11:46:50;;;;;;;17.55;9.82;;;16.40;78.70;;;;;;4959497;28;20042;-68
2024/03/13 11:49:17;;;;;;;17.08;9.48;;;16.30;78.20;;;;;;4972189;28;20027;-68
2024/03/13 11:52:02;;;;;;;19.13;9.68;;;16.30;78.30;;;;;;4958983;28;20065;-69
2024/03/13 11:54:35;;;;;;;15.05;9.55;;;16.20;79.20;;;;;;4974403;28;20023;-70
2024/03/13 11:57:03;;;;;;;19.00;9.90;;;16.30;77.70;;;;;;4956216;28;20119;-69
2024/03/13 11:59:40;;;;;;;15.25;8.88;;;16.10;78.90;;;;;;4959693;28;20023;-71
2024/03/13 12:02:28;;;;;;;18.88;9.57;;;16.10;79.10;;;;;;4960001;28;20042;-71
2024/03/13 12:05:04;;;;;;;17.65;8.43;;;16.10;78.00;;;;;;4960814;28;20593;-71
2024/03/13 12:07:42;;;;;;;19.02;9.25;;;16.00;77.50;;;;;;4963774;28;20034;-71
2024/03/13 12:10:19;;;;;;;16.70;9.10;;;15.90;78.20;;;;;;4963729;28;20030;-71
2024/03/13 12:12:46;;;;;;;20.15;8.82;;;15.80;78.00;;;;;;4963019;28;20042;-70
2024/03/13 12:15:21;;;;;;;17.15;9.15;;;15.80;78.00;;;;;;4962136;28;20122;-71
2024/03/13 12:17:51;;;;;;;16.90;9.13;;;15.80;79.50;;;;;;4963030;28;20399;-71
2024/03/13 12:20:22;;;;;;;16.48;8.90;;;16.00;79.90;;;;;;4960707;28;20114;-69
2024/03/13 12:22:49;;;;;;;14.32;8.02;;;16.00;77.00;;;;;;4964835;28;20039;-70
2024/03/13 12:25:16;;;;;;;15.07;7.95;;;16.00;79.00;;;;;;4964592;28;20030;-71
2024/03/13 12:27:52;;;;;;;14.95;8.32;;;16.20;79.10;;;;;;4960506;28;20066;-70
2024/03/13 12:30:18;;;;;;;15.02;8.60;;;16.20;77.20;;;;;;4966978;28;20023;-70
2024/03/13 12:32:50;;;;;;;19.42;8.82;;;16.30;77.80;;;;;;4964939;28;20209;-70
2024/03/13 12:35:17;;;;;;;15.75;8.60;;;16.00;77.00;;;;;;4962830;28;20043;-70
2024/03/13 12:37:53;;;;;;;16.80;9.70;;;15.80;78.70;;;;;;4964161;28;20110;-70
2024/03/13 12:40:20;;;;;;;18.13;9.45;;;15.80;78.40;;;;;;4963160;28;20039;-71
2024/03/13 12:42:47;;;;;;;19.13;9.90;;;15.80;79.10;;;;;;4972725;28;20039;-70
2024/03/13 12:45:14;;;;;;;17.10;9.35;;;15.90;78.20;;;;;;4962277;28;20034;-70
2024/03/13 12:47:47;;;;;;;17.38;9.10;;;16.00;78.10;;;;;;4959815;28;20039;-71
2024/03/13 12:50:15;;;;;;;21.88;11.38;;;16.10;78.60;;;;;;4963742;28;20089;-71
2024/03/13 12:52:49;;;;;;;17.08;9.43;;;16.10;79.10;;;;;;4963681;28;20050;-72
2024/03/13 12:55:16;;;;;;;19.80;9.05;;;16.10;77.70;;;;;;4961485;28;20035;-71